Time;durP1;ratioP1;P1;durP2;ratioP2;P2;SDS_P1;SDS_P2;PMS_P1;PMS_P2;Temp;Humidity;BMP_temperature;BMP_pressure;BME280_temperature;BME280_humidity;BME280_pressure;Samples;Min_cycle;Max_cycle;Signal;HPM_P1;HPM_P2
2024/04/03 00:02:06;;;;;;;11.18;4.07;;;;;;;14.79;74.98;100710.59;5070184;28;20028;-47
2024/04/03 00:04:31;;;;;;;11.43;3.90;;;;;;;14.76;75.47;100702.72;5057092;28;20033;-47
2024/04/03 00:06:58;;;;;;;12.55;4.00;;;;;;;14.71;75.79;100695.78;5049460;28;20189;-44
2024/04/03 00:09:24;;;;;;;11.27;4.10;;;;;;;14.83;75.43;100698.31;5047493;28;20095;-43
2024/04/03 00:11:49;;;;;;;10.10;4.03;;;;;;;14.82;75.41;100692.19;5045488;28;20033;-46
2024/04/03 00:14:14;;;;;;;11.10;4.10;;;;;;;14.81;75.80;100697.47;5060084;28;20028;-45
2024/04/03 00:16:40;;;;;;;11.10;4.05;;;;;;;14.84;75.42;100686.94;5072489;28;20031;-48
2024/04/03 00:19:05;;;;;;;8.48;4.35;;;;;;;14.87;75.47;100686.94;5071240;28;20102;-44
2024/04/03 00:21:30;;;;;;;9.57;4.63;;;;;;;14.85;75.49;100676.44;5072206;28;20037;-43
2024/04/03 00:23:55;;;;;;;11.07;4.60;;;;;;;14.83;75.63;100682.56;5072587;28;20506;-45
2024/04/03 00:26:21;;;;;;;11.95;5.43;;;;;;;14.72;76.07;100671.28;5071814;28;20435;-44
2024/04/03 00:28:46;;;;;;;12.50;6.05;;;;;;;14.78;76.00;100671.25;5071205;28;20700;-44
2024/04/03 00:31:12;;;;;;;13.88;6.95;;;;;;;14.82;76.09;100672.97;5071190;28;20056;-44
2024/04/03 00:33:37;;;;;;;15.18;7.03;;;;;;;14.84;76.36;100673.81;5072819;28;20086;-45
2024/04/03 00:36:03;;;;;;;14.48;6.90;;;;;;;14.89;75.88;100674.66;5073453;28;20039;-44
2024/04/03 00:38:28;;;;;;;14.90;7.28;;;;;;;14.70;76.52;100666.03;5073975;28;20086;-44
2024/04/03 00:40:58;;;;;;;17.95;7.50;;;;;;;14.69;77.41;100664.31;5075068;28;20546;-43
2024/04/03 00:43:28;;;;;;;12.75;7.15;;;;;;;14.78;77.01;100658.13;5074851;28;20169;-43
2024/04/03 00:45:56;;;;;;;17.75;8.20;;;;;;;14.74;77.36;100657.28;5056697;28;20033;-43
2024/04/03 00:48:22;;;;;;;17.30;8.25;;;;;;;14.87;77.00;100652.81;5072934;28;20447;-44
2024/04/03 00:50:48;;;;;;;16.20;8.43;;;;;;;14.86;76.86;100654.56;5072663;28;20040;-48
2024/04/03 00:53:15;;;;;;;18.80;8.77;;;;;;;14.84;77.33;100644.94;5037875;28;20036;-47
2024/04/03 00:55:41;;;;;;;19.98;8.45;;;;;;;14.90;77.26;100643.16;5071860;28;20028;-44
2024/04/03 00:58:07;;;;;;;18.85;8.88;;;;;;;14.89;77.59;100648.41;5071643;28;20040;-44
2024/04/03 01:00:33;;;;;;;17.60;9.43;;;;;;;14.93;77.37;100640.53;5072053;28;20048;-44
2024/04/03 01:03:00;;;;;;;16.15;9.45;;;;;;;14.88;77.91;100639.66;5072051;28;20043;-45
2024/04/03 01:05:25;;;;;;;22.02;10.05;;;;;;;14.68;78.57;100638.97;5071080;28;20139;-45
2024/04/03 01:07:51;;;;;;;21.17;10.48;;;;;;;14.84;78.52;100624.81;5070390;28;20119;-46
2024/04/03 01:10:16;;;;;;;19.42;10.15;;;;;;;14.95;78.09;100620.34;5070910;28;20119;-44
2024/04/03 01:12:42;;;;;;;18.95;10.43;;;;;;;14.91;78.34;100618.66;5040753;28;20041;-47
2024/04/03 01:15:07;;;;;;;17.58;10.00;;;;;;;14.80;78.93;100611.75;5066148;28;20032;-46
2024/04/03 01:17:33;;;;;;;20.48;10.60;;;;;;;14.91;78.54;100607.28;5070154;28;20059;-46
2024/04/03 01:19:58;;;;;;;20.92;11.48;;;;;;;14.87;78.71;100613.44;5071541;28;20029;-45
2024/04/03 01:22:23;;;;;;;22.70;11.52;;;;;;;14.93;78.86;100606.41;5070578;28;20228;-44
2024/04/03 01:24:49;;;;;;;24.52;11.15;;;;;;;14.70;80.42;100594.34;5071384;28;20059;-45
2024/04/03 01:27:14;;;;;;;19.38;9.93;;;;;;;14.94;79.35;100604.66;5071395;28;20021;-46
2024/04/03 01:29:39;;;;;;;21.20;10.40;;;;;;;14.91;79.56;100602.03;5070040;28;20059;-45
2024/04/03 01:32:06;;;;;;;18.75;10.05;;;;;;;14.98;79.48;100593.22;5071053;28;20032;-49
2024/04/03 01:34:31;;;;;;;16.80;9.25;;;;;;;14.89;79.89;100588.91;5062670;28;20087;-49
2024/04/03 01:36:57;;;;;;;20.52;8.68;;;;;;;14.85;80.31;100586.34;5071168;28;20044;-46
2024/04/03 01:39:22;;;;;;;19.52;9.27;;;;;;;14.82;80.72;100581.13;5070494;28;20112;-46
2024/04/03 01:41:48;;;;;;;22.95;9.23;;;;;;;14.92;80.33;100574.91;5052884;28;20119;-45
2024/04/03 01:44:13;;;;;;;21.90;8.60;;;;;;;14.89;80.04;100570.53;5070233;28;20371;-50
2024/04/03 01:46:38;;;;;;;15.65;8.30;;;;;;;14.84;81.13;100569.72;5069050;28;20094;-45
2024/04/03 01:49:04;;;;;;;16.60;8.40;;;;;;;14.87;80.91;100563.59;5070285;28;20499;-49
2024/04/03 01:51:29;;;;;;;13.48;7.40;;;;;;;14.78;80.88;100561.91;5069279;28;20240;-45
2024/04/03 01:53:54;;;;;;;17.02;6.88;;;;;;;14.81;81.28;100559.25;5069690;28;20040;-45
2024/04/03 01:56:20;;;;;;;15.80;6.80;;;;;;;14.78;80.88;100561.03;5069774;28;20082;-47
2024/04/03 01:58:45;;;;;;;14.77;6.18;;;;;;;14.74;81.09;100560.19;5070692;28;20029;-46
2024/04/03 02:01:10;;;;;;;14.65;5.47;;;;;;;14.77;81.64;100554.03;5068348;28;20036;-50
2024/04/03 02:03:36;;;;;;;12.88;5.90;;;;;;;14.81;81.18;100547.88;5070176;28;20028;-47
2024/04/03 02:06:02;;;;;;;10.57;5.10;;;;;;;14.76;81.67;100542.66;5070215;28;20305;-47
2024/04/03 02:08:28;;;;;;;17.23;5.47;;;;;;;14.82;81.13;100541.75;5069632;28;20129;-49
2024/04/03 02:10:53;;;;;;;8.48;4.72;;;;;;;14.91;80.31;100537.28;5068738;28;20167;-45
2024/04/03 02:13:18;;;;;;;11.65;4.93;;;;;;;14.92;80.77;100538.16;5068284;28;20033;-47
2024/04/03 02:15:54;;;;;;;12.73;5.20;;;;;;;14.82;80.52;100531.25;5050948;28;20029;-49
2024/04/03 02:18:19;;;;;;;12.20;5.35;;;;;;;14.76;81.25;100534.78;5070031;28;20095;-47
2024/04/03 02:20:45;;;;;;;10.98;5.10;;;;;;;14.81;81.19;100529.53;5070392;28;20028;-51
2024/04/03 02:23:10;;;;;;;11.32;5.30;;;;;;;14.71;81.31;100520.84;5068682;28;20040;-46
2024/04/03 02:25:35;;;;;;;13.45;5.18;;;;;;;14.71;81.09;100519.97;5070464;28;20044;-45
2024/04/03 02:28:01;;;;;;;14.88;5.60;;;;;;;14.57;82.05;100510.50;5069360;28;20024;-47
2024/04/03 02:30:26;;;;;;;14.75;5.65;;;;;;;14.67;81.98;100510.41;5070355;28;20040;-45
2024/04/03 02:32:51;;;;;;;15.18;6.40;;;;;;;14.75;81.04;100508.59;5070439;28;20116;-46
2024/04/03 02:35:17;;;;;;;12.48;5.65;;;;;;;14.73;81.02;100507.72;5068702;28;20447;-47
2024/04/03 02:37:42;;;;;;;12.15;5.90;;;;;;;14.47;81.59;100502.69;5070022;28;20423;-47
2024/04/03 02:40:08;;;;;;;12.30;5.75;;;;;;;14.78;81.30;100500.66;5069486;28;20024;-49
2024/04/03 02:42:33;;;;;;;13.38;5.80;;;;;;;14.79;81.04;100498.03;5069943;28;20036;-47
2024/04/03 02:44:58;;;;;;;14.00;5.72;;;;;;;14.84;80.60;100492.72;5069688;28;20036;-46
2024/04/03 02:47:25;;;;;;;10.23;5.03;;;;;;;14.85;80.06;100484.84;5069792;28;20032;-46
2024/04/03 02:49:50;;;;;;;11.73;4.90;;;;;;;14.75;80.59;100491.09;5068794;28;20024;-45
2024/04/03 02:52:16;;;;;;;8.85;4.38;;;;;;;14.83;80.30;100489.22;5069531;28;20025;-46
2024/04/03 02:54:41;;;;;;;10.43;4.40;;;;;;;14.52;80.77;100480.78;5052126;28;20036;-46
2024/04/03 02:57:07;;;;;;;11.07;4.05;;;;;;;14.80;79.93;100481.41;5068272;28;20035;-45
2024/04/03 02:59:35;;;;;;;11.65;3.90;;;;;;;14.60;80.31;100476.34;5069140;28;20037;-47
2024/04/03 03:02:00;;;;;;;8.18;3.20;;;;;;;14.54;80.46;100478.16;5070251;28;20526;-47
2024/04/03 03:04:26;;;;;;;9.98;3.50;;;;;;;14.65;80.20;100476.28;5069880;28;20083;-45
2024/04/03 03:06:52;;;;;;;7.63;3.15;;;;;;;14.51;80.20;100472.94;5070082;28;20021;-49
2024/04/03 03:09:20;;;;;;;7.22;2.65;;;;;;;14.33;80.84;100476.56;5069011;28;20052;-47
2024/04/03 03:11:46;;;;;;;6.90;2.70;;;;;;;14.54;80.73;100468.53;5069539;28;20021;-46
2024/04/03 03:14:11;;;;;;;6.32;2.60;;;;;;;14.42;81.34;100473.00;5067402;28;20032;-47
2024/04/03 03:16:36;;;;;;;9.15;2.30;;;;;;;14.48;80.55;100463.34;5068175;28;20086;-46
2024/04/03 03:19:02;;;;;;;6.28;2.38;;;;;;;14.00;81.57;100474.19;5051867;28;20033;-45
2024/04/03 03:21:27;;;;;;;7.28;2.42;;;;;;;14.45;80.35;100465.13;5068998;28;20036;-45
2024/04/03 03:23:52;;;;;;;6.22;2.30;;;;;;;14.21;80.37;100459.16;5068863;28;20029;-45
2024/04/03 03:26:17;;;;;;;5.50;2.00;;;;;;;14.39;80.29;100465.19;5069256;28;20033;-47
2024/04/03 03:28:43;;;;;;;5.82;2.00;;;;;;;14.34;80.34;100457.31;5069489;28;20111;-44
2024/04/03 03:31:08;;;;;;;7.65;1.85;;;;;;;14.46;79.60;100454.59;5069309;28;20082;-48
2024/04/03 03:33:34;;;;;;;4.45;1.58;;;;;;;14.33;79.52;100458.22;5069724;28;20395;-49
2024/04/03 03:35:59;;;;;;;3.70;1.77;;;;;;;14.44;79.10;100451.16;5069008;28;20432;-46
2024/04/03 03:38:25;;;;;;;3.05;1.60;;;;;;;14.28;79.30;100443.38;5068054;28;20036;-46
2024/04/03 03:40:54;;;;;;;4.43;1.60;;;;;;;14.50;79.04;100437.97;5068032;28;20028;-46
2024/04/03 03:43:20;;;;;;;7.10;1.80;;;;;;;14.29;79.55;100435.50;5068825;28;20032;-44
2024/04/03 03:45:50;;;;;;;4.38;1.60;;;;;;;14.26;79.45;100432.06;5053827;28;20152;-45
2024/04/03 03:48:17;;;;;;;4.15;1.90;;;;;;;14.52;78.88;100433.56;5071594;28;20174;-47
2024/04/03 03:53:28;;;;;;;6.05;1.95;;;;;;;14.54;78.71;100430.94;5072577;28;20113;-45
2024/04/03 03:55:53;;;;;;;6.13;2.10;;;;;;;14.35;79.05;100430.22;5071661;28;20036;-47
2024/04/03 03:58:22;;;;;;;5.22;1.73;;;;;;;14.46;78.52;100423.13;5072387;28;20039;-49
2024/04/03 04:00:48;;;;;;;4.72;1.80;;;;;;;14.52;78.42;100417.81;5072955;28;20032;-45
2024/04/03 04:03:13;;;;;;;6.18;1.98;;;;;;;14.53;78.03;100421.31;5070652;28;20035;-45
2024/04/03 04:05:38;;;;;;;6.68;2.05;;;;;;;14.42;78.78;100423.19;5073158;28;20435;-44
2024/04/03 04:08:04;;;;;;;6.75;2.20;;;;;;;14.38;78.80;100404.00;5071805;28;20387;-47
2024/04/03 04:10:29;;;;;;;4.57;2.20;;;;;;;14.40;78.68;100407.47;5054376;28;20036;-46
2024/04/03 04:12:55;;;;;;;6.30;2.75;;;;;;;14.39;78.43;100403.13;5072521;28;20041;-44
2024/04/03 04:15:22;;;;;;;6.18;2.60;;;;;;;14.24;79.39;100408.47;5071996;28;20044;-46
2024/04/03 04:17:47;;;;;;;8.15;2.78;;;;;;;14.30;78.72;100402.28;5054760;28;20056;-46
2024/04/03 04:20:12;;;;;;;9.02;3.00;;;;;;;14.29;78.98;100403.16;5070393;28;20059;-46
2024/04/03 04:22:38;;;;;;;7.15;3.03;;;;;;;14.31;79.13;100401.41;5072539;28;20039;-46
2024/04/03 04:25:03;;;;;;;8.32;3.25;;;;;;;14.31;78.84;100389.16;5071172;28;20469;-49
2024/04/03 04:27:30;;;;;;;8.00;3.03;;;;;;;14.30;79.32;100390.06;5072523;28;20436;-44
2024/04/03 04:29:55;;;;;;;6.65;2.80;;;;;;;14.26;79.83;100395.34;5071146;28;20461;-47
2024/04/03 04:32:20;;;;;;;10.18;3.35;;;;;;;14.26;79.49;100396.22;5071587;28;20060;-46
2024/04/03 04:34:46;;;;;;;8.65;3.50;;;;;;;14.21;80.06;100401.47;5072289;28;20383;-45
2024/04/03 04:37:11;;;;;;;9.18;3.40;;;;;;;14.22;79.98;100397.09;5071667;28;20059;-45
2024/04/03 04:39:37;;;;;;;8.90;3.10;;;;;;;14.13;80.80;100392.84;5070762;28;20057;-46
2024/04/03 04:42:03;;;;;;;7.82;3.30;;;;;;;14.28;80.34;100393.56;5071969;28;20081;-44
2024/04/03 04:44:28;;;;;;;10.05;3.10;;;;;;;14.30;80.49;100395.28;5071484;28;20119;-46
2024/04/03 04:46:56;;;;;;;8.68;3.00;;;;;;;14.34;80.35;100393.50;5070856;28;20117;-46
2024/04/03 04:49:23;;;;;;;9.57;3.28;;;;;;;14.46;80.05;100389.03;5070325;28;20024;-44
2024/04/03 04:51:49;;;;;;;9.98;3.22;;;;;;;14.48;79.88;100389.91;5070970;28;20143;-46
2024/04/03 04:54:15;;;;;;;7.55;3.17;;;;;;;14.54;79.78;100392.47;5070174;28;20082;-45
2024/04/03 04:56:41;;;;;;;8.98;3.60;;;;;;;14.51;79.85;100389.88;5072652;28;20032;-44
2024/04/03 04:59:08;;;;;;;9.63;3.50;;;;;;;14.51;80.02;100383.78;5073546;28;20032;-47
2024/04/03 05:01:34;;;;;;;9.23;3.35;;;;;;;14.47;79.98;100387.28;5062166;28;20029;-44
2024/04/03 05:04:00;;;;;;;10.77;4.32;;;;;;;14.38;80.89;100384.78;5070474;28;20020;-48
2024/04/03 05:06:26;;;;;;;8.20;4.25;;;;;;;14.51;80.22;100378.53;5069676;28;20097;-50
2024/04/03 05:08:51;;;;;;;11.32;4.57;;;;;;;14.60;79.79;100383.66;5071969;28;20522;-44
2024/04/03 05:11:16;;;;;;;10.25;4.65;;;;;;;14.28;81.21;100376.06;5071325;28;20425;-46
2024/04/03 05:13:42;;;;;;;10.07;5.22;;;;;;;14.59;80.06;100381.91;5071750;28;20028;-46
2024/04/03 05:16:12;;;;;;;11.43;5.38;;;;;;;14.59;79.93;100371.41;5071183;28;20595;-49
2024/04/03 05:18:39;;;;;;;11.65;5.50;;;;;;;14.60;80.07;100374.03;5071910;28;20037;-45
2024/04/03 05:21:05;;;;;;;14.00;5.55;;;;;;;14.63;79.65;100356.53;5071780;28;20032;-45
2024/04/03 05:23:31;;;;;;;10.90;5.90;;;;;;;14.49;80.14;100360.16;5072860;28;20029;-45
2024/04/03 05:26:01;;;;;;;13.57;6.15;;;;;;;14.55;80.15;100365.34;5072317;28;20028;-47
2024/04/03 05:28:28;;;;;;;12.00;6.00;;;;;;;14.61;80.17;100364.41;5071072;28;20037;-46
2024/04/03 05:30:54;;;;;;;14.82;6.20;;;;;;;14.61;80.08;100357.41;5071117;28;20028;-46
2024/04/03 05:33:20;;;;;;;11.85;6.45;;;;;;;14.62;80.06;100353.03;5070708;28;20102;-45
2024/04/03 05:35:55;;;;;;;14.15;6.15;;;;;;;14.57;80.45;100352.22;5071343;28;20028;-46
2024/04/03 05:38:21;;;;;;;11.95;6.28;;;;;;;14.70;80.17;100358.19;5070836;28;20483;-46
2024/04/03 05:40:50;;;;;;;12.65;5.80;;;;;;;14.77;79.93;100357.22;5071229;28;20032;-45
2024/04/03 05:43:15;;;;;;;11.57;5.97;;;;;;;14.48;81.05;100358.44;5070514;28;20065;-45
2024/04/03 05:45:41;;;;;;;12.98;5.70;;;;;;;14.80;80.29;100351.94;5070894;28;20178;-43
2024/04/03 05:48:07;;;;;;;12.77;6.13;;;;;;;14.66;80.63;100344.22;5071237;28;20037;-46
2024/04/03 05:50:32;;;;;;;14.65;5.80;;;;;;;14.74;80.68;100345.03;5059465;28;20060;-45
2024/04/03 05:52:58;;;;;;;11.90;5.80;;;;;;;14.69;80.93;100341.59;5053719;28;20411;-45
2024/04/03 05:55:23;;;;;;;10.55;5.20;;;;;;;14.88;80.12;100343.06;5052883;28;20155;-46
2024/04/03 05:57:48;;;;;;;11.88;5.40;;;;;;;15.05;79.54;100344.63;5053444;28;20036;-45
2024/04/03 06:00:14;;;;;;;15.25;5.20;;;;;;;15.17;79.37;100349.72;5050539;28;20625;-44
2024/04/03 06:02:40;;;;;;;11.25;5.40;;;;;;;15.01;79.26;100341.16;5052228;28;20044;-46
2024/04/03 06:05:06;;;;;;;11.90;5.15;;;;;;;15.13;79.37;100341.00;5054528;28;20095;-45
2024/04/03 06:07:31;;;;;;;12.15;5.15;;;;;;;15.16;79.07;100343.59;5052380;28;20506;-47
2024/04/03 06:09:57;;;;;;;10.57;5.00;;;;;;;14.80;79.26;100339.69;5053508;28;20033;-44
2024/04/03 06:12:22;;;;;;;12.38;5.00;;;;;;;15.14;79.38;100348.00;5050387;28;20063;-47
2024/04/03 06:14:47;;;;;;;12.48;5.18;;;;;;;15.06;78.95;100344.63;5050316;28;20087;-46
2024/04/03 06:17:13;;;;;;;14.73;5.30;;;;;;;15.10;79.86;100345.44;5049715;28;20036;-47
2024/04/03 06:19:38;;;;;;;11.70;5.55;;;;;;;15.09;79.24;100341.06;5050198;28;20041;-46
2024/04/03 06:22:03;;;;;;;11.90;5.07;;;;;;;15.30;79.12;100343.41;5050414;28;20036;-46
2024/04/03 06:24:29;;;;;;;12.68;5.30;;;;;;;15.26;79.05;100339.06;5049675;28;20045;-47
2024/04/03 06:26:56;;;;;;;11.75;5.22;;;;;;;15.40;78.91;100342.38;5050374;28;20491;-45
2024/04/03 06:29:21;;;;;;;10.43;5.03;;;;;;;15.39;79.07;100338.88;5049724;28;20057;-47
2024/04/03 06:31:47;;;;;;;12.07;4.88;;;;;;;15.35;79.07;100336.34;5050175;28;20033;-45
2024/04/03 06:34:14;;;;;;;10.70;4.60;;;;;;;15.53;78.70;100333.47;5049354;28;20496;-45
2024/04/03 06:36:39;;;;;;;9.95;4.55;;;;;;;15.58;78.22;100330.75;5049858;28;20116;-46
2024/04/03 06:39:06;;;;;;;13.35;5.20;;;;;;;15.68;78.14;100330.56;5050038;28;20041;-46
2024/04/03 06:41:31;;;;;;;14.57;4.55;;;;;;;15.52;77.73;100329.09;5050590;28;20033;-45
2024/04/03 06:43:56;;;;;;;10.98;4.53;;;;;;;15.65;77.95;100325.38;5051500;28;20056;-46
2024/04/03 06:46:23;;;;;;;10.02;4.60;;;;;;;15.82;77.25;100325.09;5049296;28;20036;-46
2024/04/03 06:48:48;;;;;;;9.50;4.55;;;;;;;15.96;77.33;100327.50;5050266;28;20051;-46
2024/04/03 06:51:13;;;;;;;10.85;4.97;;;;;;;15.86;77.11;100318.06;5049449;28;20535;-45
2024/04/03 06:53:39;;;;;;;9.73;5.40;;;;;;;15.90;76.91;100323.22;5049533;28;20041;-47
2024/04/03 06:56:04;;;;;;;10.85;5.07;;;;;;;16.04;76.42;100323.81;5050062;28;20058;-45
2024/04/03 06:58:38;;;;;;;9.40;5.25;;;;;;;15.96;76.50;100317.00;5050451;28;20037;-44
2024/04/03 07:01:04;;;;;;;12.57;5.90;;;;;;;15.97;75.90;100321.34;5051963;28;20105;-44
2024/04/03 07:03:30;;;;;;;13.27;6.20;;;;;;;15.84;75.80;100323.31;5050616;28;20576;-45
2024/04/03 07:05:55;;;;;;;11.00;5.80;;;;;;;15.76;76.03;100327.84;5049722;28;20033;-47
2024/04/03 07:08:21;;;;;;;12.32;5.88;;;;;;;15.67;76.24;100322.75;5049605;28;20033;-45
2024/04/03 07:10:46;;;;;;;11.82;6.15;;;;;;;15.83;76.37;100319.81;5049939;28;20033;-46
2024/04/03 07:13:12;;;;;;;10.13;6.20;;;;;;;15.93;75.79;100319.66;5049523;28;20542;-47
2024/04/03 07:15:37;;;;;;;13.32;6.35;;;;;;;16.10;75.32;100318.47;5049716;28;20037;-47
2024/04/03 07:18:03;;;;;;;13.73;6.40;;;;;;;16.02;75.31;100317.75;5049940;28;20451;-46
2024/04/03 07:20:29;;;;;;;11.93;6.70;;;;;;;15.76;76.04;100314.69;5054868;28;20441;-45
2024/04/03 07:22:56;;;;;;;12.60;6.60;;;;;;;16.01;75.77;100317.78;5055061;28;20025;-44
2024/04/03 07:25:22;;;;;;;12.77;7.07;;;;;;;15.69;75.63;100319.19;5053384;28;20033;-49
2024/04/03 07:27:48;;;;;;;13.50;6.93;;;;;;;15.89;75.56;100316.22;5054192;28;20037;-44
2024/04/03 07:30:13;;;;;;;14.30;7.15;;;;;;;15.93;75.44;100311.75;5053876;28;20033;-46
2024/04/03 07:32:40;;;;;;;10.15;6.60;;;;;;;15.96;75.56;100312.59;5053602;28;20036;-48
2024/04/03 07:35:05;;;;;;;11.65;6.80;;;;;;;16.10;75.26;100317.63;5053881;28;20032;-47
2024/04/03 07:37:30;;;;;;;15.55;7.03;;;;;;;16.12;74.87;100311.41;5053313;28;20102;-46
2024/04/03 07:39:56;;;;;;;11.85;6.45;;;;;;;16.07;74.83;100309.78;5054168;28;20497;-46
2024/04/03 07:42:21;;;;;;;13.18;6.43;;;;;;;16.16;74.48;100313.09;5053168;28;20178;-45
2024/04/03 07:44:47;;;;;;;10.80;6.53;;;;;;;15.82;75.37;100310.19;5054091;28;20116;-46
2024/04/03 07:47:12;;;;;;;11.57;6.07;;;;;;;15.96;75.13;100309.97;5053258;28;20064;-49
2024/04/03 07:49:37;;;;;;;10.48;6.30;;;;;;;16.10;74.89;100305.31;5054570;28;20038;-46
2024/04/03 07:52:03;;;;;;;12.32;6.55;;;;;;;15.98;75.08;100308.16;5052605;28;20033;-49
2024/04/03 07:54:28;;;;;;;11.82;6.68;;;;;;;16.08;75.10;100312.38;5048872;28;20041;-45
2024/04/03 07:56:54;;;;;;;8.55;6.05;;;;;;;16.19;74.67;100302.53;5052858;28;20442;-48
2024/04/03 07:59:19;;;;;;;11.13;6.32;;;;;;;16.17;74.90;100298.19;5052398;28;20487;-47
2024/04/03 08:01:44;;;;;;;10.10;6.43;;;;;;;16.26;75.14;100298.03;5052848;28;20051;-46
2024/04/03 08:04:09;;;;;;;12.13;6.75;;;;;;;15.79;75.98;100306.78;5052495;28;20118;-45
2024/04/03 08:06:35;;;;;;;10.80;6.60;;;;;;;16.24;74.86;100299.81;5052720;28;20035;-44
2024/04/03 08:09:00;;;;;;;9.48;6.38;;;;;;;16.05;74.60;100306.28;5053213;28;20036;-46
2024/04/03 08:11:25;;;;;;;10.77;6.57;;;;;;;16.51;73.99;100306.31;5052477;28;20560;-45
2024/04/03 08:13:52;;;;;;;10.73;6.28;;;;;;;16.31;74.65;100303.19;5053289;28;20025;-44
2024/04/03 08:16:17;;;;;;;9.57;6.20;;;;;;;16.27;74.22;100294.50;5053873;28;20040;-44
2024/04/03 08:18:44;;;;;;;8.07;5.68;;;;;;;16.29;74.93;100294.44;5054807;28;20029;-44
2024/04/03 08:21:10;;;;;;;8.63;5.70;;;;;;;16.35;74.86;100299.59;5054090;28;20091;-45
2024/04/03 08:23:36;;;;;;;8.27;5.72;;;;;;;16.76;74.00;100299.69;5054586;28;20037;-43
2024/04/03 08:26:09;;;;;;;8.00;5.63;;;;;;;16.59;73.76;100304.38;5054292;28;20029;-46
2024/04/03 08:28:36;;;;;;;7.82;5.25;;;;;;;16.79;73.17;100310.13;5045549;28;20040;-46
2024/04/03 08:31:02;;;;;;;8.70;5.80;;;;;;;16.65;73.07;100309.53;5052952;28;20672;-46
2024/04/03 08:33:28;;;;;;;9.02;5.45;;;;;;;16.44;73.48;100310.81;5052199;28;20045;-45
2024/04/03 08:36:00;;;;;;;8.15;5.43;;;;;;;16.15;74.30;100308.75;5052460;28;20029;-46
2024/04/03 08:38:26;;;;;;;10.55;5.40;;;;;;;16.37;73.18;100310.97;5051764;28;20473;-46
2024/04/03 08:40:59;;;;;;;7.15;5.20;;;;;;;16.63;72.78;100301.69;5052357;28;20111;-46
2024/04/03 08:43:24;;;;;;;9.18;5.57;;;;;;;16.50;72.72;100307.19;5052132;28;20077;-45
2024/04/03 08:45:52;;;;;;;8.13;5.72;;;;;;;16.31;72.96;100309.31;5053825;28;20036;-45
2024/04/03 08:48:20;;;;;;;9.25;5.93;;;;;;;16.48;73.20;100308.97;5053755;28;20116;-44
2024/04/03 08:50:46;;;;;;;8.38;5.45;;;;;;;16.79;72.66;100304.88;5054056;28;20033;-47
2024/04/03 08:53:16;;;;;;;8.48;5.88;;;;;;;16.44;73.87;100305.56;5053144;28;20041;-47
2024/04/03 08:55:47;;;;;;;7.05;5.80;;;;;;;16.77;72.60;100308.44;5053848;28;20534;-44
2024/04/03 08:58:14;;;;;;;9.40;6.22;;;;;;;16.82;72.22;100310.09;5053512;28;20403;-46
2024/04/03 09:00:40;;;;;;;10.45;6.70;;;;;;;16.82;72.24;100307.47;5053497;28;20167;-47
2024/04/03 09:03:05;;;;;;;9.13;6.70;;;;;;;16.87;71.96;100302.94;5052887;28;20587;-46
2024/04/03 09:05:31;;;;;;;11.18;7.40;;;;;;;16.78;71.79;100304.91;5053235;28;20043;-44
2024/04/03 09:08:05;;;;;;;9.98;7.10;;;;;;;17.15;71.95;100304.97;5053236;28;20120;-46
2024/04/03 09:10:57;;;;;;;9.48;6.75;;;;;;;16.99;71.33;100299.19;5051295;28;20059;-44
2024/04/03 09:13:21;;;;;;;10.43;6.93;;;;;;;17.07;71.30;100293.75;5050384;28;20044;-44
2024/04/03 09:15:54;;;;;;;8.25;6.50;;;;;;;17.08;71.26;100303.41;5051511;28;20423;-43
2024/04/03 09:18:20;;;;;;;9.95;6.90;;;;;;;17.15;71.26;100295.28;5052406;28;20055;-44
2024/04/03 09:20:50;;;;;;;8.55;7.10;;;;;;;17.18;70.65;100300.50;5053470;28;20037;-45
2024/04/03 09:23:17;;;;;;;9.00;7.30;;;;;;;17.28;70.23;100306.44;5053180;28;20040;-46
2024/04/03 09:25:42;;;;;;;10.45;6.70;;;;;;;16.75;70.26;100305.84;5052378;28;20036;-42
2024/04/03 09:28:09;;;;;;;11.70;7.13;;;;;;;16.99;70.67;100305.31;5052871;28;20032;-46
2024/04/03 09:30:38;;;;;;;9.57;6.75;;;;;;;17.01;70.33;100307.94;5051684;28;20025;-47
2024/04/03 09:33:04;;;;;;;10.85;6.82;;;;;;;17.20;70.03;100308.41;5051209;28;20036;-45
2024/04/03 09:35:34;;;;;;;8.75;7.05;;;;;;;16.89;70.48;100311.69;5050817;28;20098;-46
2024/04/03 09:37:59;;;;;;;11.25;7.15;;;;;;;17.12;69.98;100310.31;5050941;28;20025;-45
2024/04/03 09:40:26;;;;;;;10.73;7.00;;;;;;;17.01;71.12;100300.91;5051150;28;20495;-46
2024/04/03 09:43:13;;;;;;;9.52;7.20;;;;;;;17.42;69.87;100318.38;5050680;28;20036;-45
2024/04/03 09:45:39;;;;;;;11.32;7.88;;;;;;;17.48;69.31;100320.00;5049929;28;20033;-47
2024/04/03 09:48:09;;;;;;;10.25;7.70;;;;;;;17.45;69.31;100313.03;5050618;28;20024;-45
2024/04/03 09:50:45;;;;;;;9.43;7.78;;;;;;;17.78;68.60;100313.16;5050722;28;20056;-45
2024/04/03 09:53:16;;;;;;;11.65;9.02;;;;;;;17.83;68.85;100309.50;5051034;28;20029;-46
2024/04/03 09:55:45;;;;;;;11.90;8.27;;;;;;;17.97;69.21;100309.16;5051784;28;20052;-46
2024/04/03 09:58:12;;;;;;;12.10;8.55;;;;;;;18.21;68.31;100310.28;5050431;28;20028;-45
2024/04/03 10:00:38;;;;;;;12.45;9.25;;;;;;;18.01;67.90;100312.56;5051084;28;20524;-45
2024/04/03 10:03:05;;;;;;;11.02;8.63;;;;;;;17.63;69.41;100318.78;5051719;28;20029;-49
2024/04/03 10:05:40;;;;;;;10.60;8.75;;;;;;;17.82;68.50;100320.94;5051638;28;20129;-49
2024/04/03 10:08:10;;;;;;;11.48;9.00;;;;;;;17.71;68.87;100315.09;5051845;28;20033;-44
2024/04/03 10:10:46;;;;;;;12.65;9.00;;;;;;;17.28;70.44;100324.88;5051644;28;20517;-45
2024/04/03 10:13:32;;;;;;;10.70;8.90;;;;;;;17.42;70.17;100323.66;5050766;28;20040;-45
2024/04/03 10:16:00;;;;;;;11.98;9.30;;;;;;;17.26;71.01;100318.78;5051313;28;20041;-47
2024/04/03 10:18:27;;;;;;;13.63;9.20;;;;;;;16.34;74.72;100319.81;5050658;28;20033;-48
2024/04/03 10:20:55;;;;;;;11.45;9.10;;;;;;;16.84;73.16;100317.94;5050444;28;20029;-47
2024/04/03 10:23:21;;;;;;;11.00;8.75;;;;;;;16.69;73.58;100320.91;5049796;28;20033;-47
2024/04/03 10:25:47;;;;;;;12.60;8.65;;;;;;;16.71;73.54;100319.09;5049953;28;20545;-46
2024/04/03 10:28:13;;;;;;;10.32;7.60;;;;;;;16.73;75.01;100312.91;5049783;28;20040;-48
2024/04/03 10:30:38;;;;;;;9.27;7.18;;;;;;;17.12;74.33;100305.06;5050416;28;20044;-44
2024/04/03 10:33:05;;;;;;;8.32;6.13;;;;;;;16.84;74.96;100313.53;5050692;28;20443;-47
2024/04/03 10:35:30;;;;;;;7.97;6.15;;;;;;;17.47;73.45;100310.38;5050415;28;20037;-44
2024/04/03 10:37:59;;;;;;;7.97;6.10;;;;;;;17.58;72.01;100307.47;5050758;28;20036;-45
2024/04/03 10:40:25;;;;;;;7.18;5.45;;;;;;;16.60;75.27;100309.66;5049588;28;20033;-46
2024/04/03 10:42:51;;;;;;;7.43;5.80;;;;;;;17.37;73.19;100311.50;5050949;28;20395;-44
2024/04/03 10:45:16;;;;;;;7.22;5.50;;;;;;;17.35;73.17;100310.66;5050048;28;20044;-45
2024/04/03 10:47:43;;;;;;;6.40;5.40;;;;;;;17.47;71.74;100306.88;5050869;28;20112;-45
2024/04/03 10:50:09;;;;;;;6.82;5.50;;;;;;;17.64;70.86;100300.31;5049743;28;20039;-50
2024/04/03 10:52:35;;;;;;;7.93;5.70;;;;;;;17.04;71.89;100305.22;5049970;28;20120;-46
2024/04/03 10:55:02;;;;;;;8.07;5.90;;;;;;;17.34;72.30;100303.66;5049811;28;20036;-46
2024/04/03 10:57:27;;;;;;;7.30;6.00;;;;;;;17.36;73.10;100302.72;5049624;28;20067;-46
2024/04/03 10:59:56;;;;;;;10.45;6.35;;;;;;;17.10;74.14;100301.56;5050113;28;20488;-50
2024/04/03 11:02:21;;;;;;;7.88;6.30;;;;;;;17.10;74.58;100305.06;5050030;28;20044;-45
2024/04/03 11:04:49;;;;;;;7.93;6.38;;;;;;;17.35;73.97;100301.00;5050661;28;20029;-46
2024/04/03 11:07:14;;;;;;;8.68;6.80;;;;;;;17.35;74.45;100297.47;5050883;28;20036;-45
2024/04/03 11:09:40;;;;;;;7.95;6.32;;;;;;;17.52;74.67;100292.66;5051596;28;20033;-45
2024/04/03 11:12:12;;;;;;;8.75;6.72;;;;;;;17.59;74.82;100290.75;5051251;28;20029;-44
2024/04/03 11:14:38;;;;;;;8.25;6.38;;;;;;;17.67;74.52;100297.63;5049077;28;20040;-47
2024/04/03 11:17:07;;;;;;;7.30;6.03;;;;;;;17.22;75.93;100298.66;5049416;28;20029;-46
2024/04/03 11:19:34;;;;;;;8.80;6.63;;;;;;;16.96;75.86;100302.75;5049281;28;20033;-46